Main page
METAR-TAF:

METAR-TAF

Airports :

Toncontín International Airport

Tegucigalpa, Honduras

latitude: 14-03N, longitude: 087-13W, elevation: 994 m

Current weather observation

The report was made 27 minutes ago, at 06:00 UTC
Wind 8 kt from the East
Temperature 21°C
Humidity 69%
Pressure 1019 hPa
Visibility 10 km or more
Broken clouds at a height of 3400 ft

METAR: MHTG 080600Z 09008KT 9999 BKN034 21/15 Q1019 A3009 NOSIG

Time: 00:27 (06:27 UTC)

Forecast

Forecast valid from 08 at 04 UTC to 10 at 01 UTC
Wind 3 kt from the North/Northeast
Visibility 10 km or more
Scattered clouds at a height of 3500 ft
Becoming
from 08 at 14 UTC to 08 at 16 UTC
Wind 13 kt from the East/Northeast
Becoming
from 09 at 00 UTC to 09 at 02 UTC
Wind 3 kt from variable directions

TAF: MHTG 080449 0806/0906 03003KT 9999 SCT035 TX28/0821Z TN16/0812Z BECMG 0814/0816 06013KT BECMG 0900/0902 VRB03KT

Weather observations and forecasts of more than 4000 airports (METAR and TAF reports).

The available stations are represented by yellow and red dots on the map.

Hover mouse over dot to see the name of the station.

Then click to see weather observations and forecasts.

To change the map : click on the green buttons with a black cross to zoom in, on the green button with a dash to zoom out, or on the green arrows for adjacent maps.


METAR-TAF: